UAE153 LSZH-OMDB
Flight info
| Callsign | UAE153 |
|---|---|
| Flight time | N/A |
| Altitude | 35000 |
| Route | DEGES Z2 XEBIX L607 ELMEM N606 GIRIS DCT TISAX DCT NAXAV DCT GIKEB DCT ROSKA DCT ROTAR DCT AIOSA/N0485F370 DCT LATAN DCT SALUN N705 MMA P751 DASUM Y234 FYM M872 BDB Y214 NAGUB/N0492F390 Y214 RAPMA DCT KUVSO DCT KATIT DCT PEKEM M628 RIGIL G783 ELUDA/N0482F350 G783 ASPED Q308 KIPOK Q568 IMPED |
| Aircraft | A388/J-SADE2E3FGHIJ3J4J5M1RWXY/LB1D1 |
Departure
| Time | 2026-05-04 20:52 |
|---|---|
| Airport | Zürich Airport (LSZH) |
Arrival
| Time | N/A |
|---|---|
| Airport | Dubai International Airport (OMDB) |
| Time | Latitude | Longitude | Altitude | Speed | Heading |
|---|---|---|---|---|---|
| 2026-05-04 20:40 | 47.46034 | 8.55833 | 1409 ft | 0 kts | 6° |
| 2026-05-04 20:44 | 47.46033 | 8.55832 | 1409 ft | 2 kts | 6° |
| 2026-05-04 20:45 | 47.46007 | 8.55828 | 1409 ft | 4 kts | 7° |
| 2026-05-04 20:45 | 47.45980 | 8.55822 | 1408 ft | 4 kts | 12° |
| 2026-05-04 20:45 | 47.45958 | 8.55811 | 1409 ft | 4 kts | 46° |
| 2026-05-04 20:45 | 47.45947 | 8.55782 | 1409 ft | 4 kts | 85° |
| 2026-05-04 20:46 | 47.45947 | 8.55752 | 1408 ft | 4 kts | 95° |
| 2026-05-04 20:46 | 47.45948 | 8.55735 | 1408 ft | 1 kts | 96° |
| 2026-05-04 20:49 | 47.45947 | 8.55753 | 1408 ft | 5 kts | 96° |
| 2026-05-04 20:49 | 47.45940 | 8.55848 | 1410 ft | 12 kts | 96° |
| 2026-05-04 20:49 | 47.45931 | 8.55969 | 1412 ft | 12 kts | 96° |
| 2026-05-04 20:49 | 47.45921 | 8.56117 | 1414 ft | 16 kts | 96° |
| 2026-05-04 20:50 | 47.45916 | 8.56267 | 1417 ft | 13 kts | 74° |
| 2026-05-04 20:50 | 47.45992 | 8.56320 | 1416 ft | 13 kts | 5° |
| 2026-05-04 20:50 | 47.46078 | 8.56349 | 1416 ft | 13 kts | 32° |
| 2026-05-04 20:50 | 47.46137 | 8.56421 | 1415 ft | 8 kts | 12° |
| 2026-05-04 20:51 | 47.46160 | 8.56403 | 1415 ft | 0 kts | 317° |
| 2026-05-04 20:51 | 47.46177 | 8.56379 | 1414 ft | 18 kts | 317° |
| 2026-05-04 20:51 | 47.46471 | 8.55979 | 1403 ft | 96 kts | 317° |
| 2026-05-04 20:51 | 47.47136 | 8.55071 | 1392 ft | 162 kts | 317° |
| 2026-05-04 20:52 | 47.48095 | 8.53763 | 1469 ft | 204 kts | 316° |
| 2026-05-04 20:52 | 47.49120 | 8.52375 | 2108 ft | 200 kts | 320° |
| 2026-05-04 20:52 | 47.50277 | 8.51220 | 2624 ft | 206 kts | 329° |
| 2026-05-04 20:52 | 47.51542 | 8.50170 | 3223 ft | 209 kts | 330° |
| 2026-05-04 20:53 | 47.52692 | 8.48865 | 3757 ft | 211 kts | 308° |
| 2026-05-04 20:53 | 47.53399 | 8.46979 | 4320 ft | 211 kts | 285° |
| 2026-05-04 20:53 | 47.53531 | 8.44828 | 4860 ft | 212 kts | 261° |
| 2026-05-04 20:53 | 47.53114 | 8.42732 | 5405 ft | 214 kts | 246° |
| 2026-05-04 20:54 | 47.52497 | 8.40719 | 5941 ft | 216 kts | 244° |
| 2026-05-04 20:54 | 47.51803 | 8.38747 | 6424 ft | 217 kts | 232° |
| 2026-05-04 20:54 | 47.50598 | 8.37440 | 6745 ft | 220 kts | 195° |
| 2026-05-04 20:54 | 47.49080 | 8.37405 | 7109 ft | 222 kts | 162° |
| 2026-05-04 20:55 | 47.47767 | 8.38620 | 7407 ft | 230 kts | 133° |
| 2026-05-04 20:55 | 47.46760 | 8.40522 | 7719 ft | 239 kts | 127° |
| 2026-05-04 20:55 | 47.45877 | 8.42623 | 8091 ft | 244 kts | 108° |
| 2026-05-04 20:55 | 47.45680 | 8.45170 | 8238 ft | 259 kts | 89° |
| 2026-05-04 20:56 | 47.45703 | 8.46977 | 8313 ft | 273 kts | 90° |
| 2026-05-04 20:56 | 47.45711 | 8.49862 | 8610 ft | 286 kts | 90° |
| 2026-05-04 20:56 | 47.45709 | 8.52847 | 9058 ft | 295 kts | 90° |
| 2026-05-04 20:56 | 47.45731 | 8.55897 | 9640 ft | 299 kts | 88° |
| 2026-05-04 20:57 | 47.45845 | 8.58974 | 10246 ft | 302 kts | 86° |
| 2026-05-04 20:57 | 47.45975 | 8.62157 | 10495 ft | 320 kts | 87° |
| 2026-05-04 20:57 | 47.46105 | 8.65539 | 10658 ft | 340 kts | 87° |
| 2026-05-04 20:57 | 47.46238 | 8.69126 | 10814 ft | 359 kts | 87° |
| 2026-05-04 20:58 | 47.46381 | 8.72913 | 10981 ft | 377 kts | 87° |
| 2026-05-04 20:58 | 47.46526 | 8.76845 | 11352 ft | 389 kts | 87° |
| 2026-05-04 20:58 | 47.46671 | 8.80871 | 11847 ft | 395 kts | 88° |
| 2026-05-04 20:58 | 47.46555 | 8.84913 | 12290 ft | 397 kts | 99° |
| 2026-05-04 20:59 | 47.45966 | 8.88929 | 12815 ft | 402 kts | 104° |
| 2026-05-04 20:59 | 47.45281 | 8.92949 | 13431 ft | 404 kts | 104° |
| 2026-05-04 20:59 | 47.44617 | 8.96998 | 14010 ft | 407 kts | 103° |
| 2026-05-04 20:59 | 47.44000 | 9.01103 | 14528 ft | 411 kts | 102° |